Time;durP1;ratioP1;P1;durP2;ratioP2;P2;SDS_P1;SDS_P2;PMS_P1;PMS_P2;Temp;Humidity;BMP_temperature;BMP_pressure;BME280_temperature;BME280_humidity;BME280_pressure;Samples;Min_cycle;Max_cycle;Signal;HPM_P1;HPM_P2
2021/09/04 00:01:11;;;;;;;0.40;0.10;;;;;;;17.01;60.48;100526.96;112094;1201;95374;-76
2021/09/04 00:03:38;;;;;;;0.40;0.10;;;;;;;17.11;60.23;100525.58;112237;1200;96003;-77
2021/09/04 00:06:05;;;;;;;0.40;0.10;;;;;;;17.16;60.10;100532.67;112054;1201;138505;-75
2021/09/04 00:08:32;;;;;;;0.40;0.20;;;;;;;17.15;60.05;100525.55;112265;1199;94830;-74
2021/09/04 00:10:58;;;;;;;0.40;0.10;;;;;;;17.13;60.11;100531.73;112198;1199;138003;-76
2021/09/04 00:13:25;;;;;;;0.40;0.10;;;;;;;17.14;60.03;100535.48;112113;1201;94986;-76
2021/09/04 00:15:52;;;;;;;0.40;0.10;;;;;;;17.12;59.93;100534.99;112282;1199;94808;-76
2021/09/04 00:18:18;;;;;;;0.40;0.10;;;;;;;17.09;60.00;100542.91;112068;1199;137311;-76
2021/09/04 00:20:45;;;;;;;0.40;0.20;;;;;;;17.02;60.16;100542.15;112337;1199;95229;-76
2021/09/04 00:23:12;;;;;;;0.40;0.10;;;;;;;16.98;60.28;100545.80;112059;1199;138759;-76
2021/09/04 00:25:38;;;;;;;0.40;0.10;;;;;;;16.95;60.19;100546.80;112195;1201;95488;-75
2021/09/04 00:28:05;;;;;;;0.40;0.10;;;;;;;16.89;60.31;100548.88;112014;1200;137808;-76
2021/09/04 00:30:32;;;;;;;0.40;0.20;;;;;;;16.77;60.58;100545.54;112291;1199;94895;-75
2021/09/04 00:32:58;;;;;;;0.40;0.10;;;;;;;16.64;60.90;100548.50;112263;1199;94828;-75
2021/09/04 00:35:25;;;;;;;0.40;0.10;;;;;;;16.61;60.98;100546.16;112155;1200;138894;-77
2021/09/04 00:37:51;;;;;;;0.40;0.20;;;;;;;16.56;61.15;100548.37;112091;1200;96741;-76
2021/09/04 00:40:18;;;;;;;0.40;0.10;;;;;;;16.46;61.47;100547.08;112076;1200;137822;-76
2021/09/04 00:42:45;;;;;;;0.40;0.20;;;;;;;16.36;61.77;100547.02;112169;1206;95364;-75
2021/09/04 00:45:11;;;;;;;0.40;0.10;;;;;;;16.34;61.74;100543.50;112161;1200;94833;-76
2021/09/04 00:47:58;;;;;;;0.40;0.10;;;;;;;16.34;61.83;100547.98;112002;1200;138074;-77
2021/09/04 00:50:27;;;;;;;0.40;0.10;;;;;;;16.27;61.92;100546.90;112188;1200;109174;-75
2021/09/04 00:52:54;;;;;;;0.40;0.20;;;;;;;16.22;61.99;100548.91;111986;1206;138213;-76
2021/09/04 00:55:22;;;;;;;0.40;0.10;;;;;;;16.17;62.12;100542.48;112407;1199;95361;-75
2021/09/04 00:57:49;;;;;;;0.40;0.20;;;;;;;16.10;62.18;100546.27;112304;1201;94883;-75
2021/09/04 01:00:16;;;;;;;0.40;0.20;;;;;;;16.05;62.28;100544.87;112090;1199;138006;-76
2021/09/04 01:02:43;;;;;;;0.40;0.20;;;;;;;16.04;62.31;100544.73;112248;1200;95527;-72
2021/09/04 01:05:10;;;;;;;0.40;0.20;;;;;;;16.10;62.14;100548.92;112040;1199;138903;-73
2021/09/04 01:07:38;;;;;;;0.40;0.20;;;;;;;16.09;61.98;100550.05;112357;1203;95095;-73
2021/09/04 01:10:06;;;;;;;0.40;0.20;;;;;;;16.08;61.80;100554.94;112073;1202;137803;-73
2021/09/04 01:12:33;;;;;;;0.40;0.20;;;;;;;15.99;61.87;100553.02;112126;1202;94892;-71
2021/09/04 01:14:59;;;;;;;0.40;0.20;;;;;;;15.96;61.92;100554.41;112137;1201;94869;-72
2021/09/04 01:17:27;;;;;;;0.40;0.20;;;;;;;15.95;62.02;100555.39;112035;1201;138467;-72
2021/09/04 01:19:53;;;;;;;0.40;0.20;;;;;;;15.94;61.76;100556.83;112113;1202;95408;-72
2021/09/04 01:22:20;;;;;;;0.40;0.20;;;;;;;15.96;61.73;100558.73;112015;1208;137727;-73
2021/09/04 01:24:49;;;;;;;0.40;0.20;;;;;;;15.97;61.61;100559.57;112102;1203;94866;-72
2021/09/04 01:27:18;;;;;;;0.40;0.20;;;;;;;15.98;61.36;100560.77;112239;1208;96122;-73
2021/09/04 01:29:46;;;;;;;0.40;0.20;;;;;;;15.96;61.43;100559.96;112225;1200;137598;-73
2021/09/04 01:32:12;;;;;;;0.40;0.20;;;;;;;15.95;61.32;100560.73;112118;1208;108653;-71
2021/09/04 01:34:39;;;;;;;0.40;0.20;;;;;;;15.83;61.62;100561.45;111979;1200;138427;-71
2021/09/04 01:37:05;;;;;;;0.40;0.20;;;;;;;15.74;61.99;100560.05;112159;1208;94946;-73
2021/09/04 01:39:33;;;;;;;0.40;0.20;;;;;;;15.76;61.90;100561.91;112100;1202;94856;-74
2021/09/04 01:42:00;;;;;;;0.40;0.10;;;;;;;15.77;61.82;100560.98;112040;1203;137454;-72
2021/09/04 01:44:27;;;;;;;0.40;0.20;;;;;;;15.76;61.93;100560.12;112128;1202;94982;-75
2021/09/04 01:46:53;;;;;;;0.40;0.20;;;;;;;15.79;61.74;100562.85;112089;1205;139761;-71
2021/09/04 01:49:20;;;;;;;0.40;0.20;;;;;;;15.82;61.59;100563.46;112174;1200;95564;-72
2021/09/04 01:51:47;;;;;;;0.40;0.20;;;;;;;15.77;61.71;100562.25;112219;1203;94821;-72
2021/09/04 01:54:13;;;;;;;0.40;0.20;;;;;;;15.67;61.89;100562.32;112074;1206;137648;-72
2021/09/04 01:56:40;;;;;;;0.40;0.20;;;;;;;15.67;61.94;100561.58;112121;1207;95268;-73
2021/09/04 01:59:07;;;;;;;0.40;0.20;;;;;;;15.68;61.89;100562.47;112109;1200;138522;-73
2021/09/04 02:01:33;;;;;;;0.40;0.20;;;;;;;15.67;61.74;100567.70;112226;1201;94863;-72
2021/09/04 02:04:00;;;;;;;0.40;0.20;;;;;;;15.57;61.86;100565.27;111976;1200;137807;-71
2021/09/04 02:06:29;;;;;;;0.40;0.20;;;;;;;15.46;62.10;100564.52;112095;1200;95372;-74
2021/09/04 02:08:56;;;;;;;0.40;0.20;;;;;;;15.44;62.16;100559.74;112119;1201;109617;-71
2021/09/04 02:11:22;;;;;;;0.40;0.20;;;;;;;15.47;61.97;100560.17;112054;1204;138195;-71
2021/09/04 02:13:49;;;;;;;0.40;0.20;;;;;;;15.49;61.90;100560.80;112090;1200;95345;-73
2021/09/04 02:16:16;;;;;;;0.40;0.20;;;;;;;15.45;61.93;100559.36;112049;1199;138743;-71
2021/09/04 02:18:42;;;;;;;0.40;0.20;;;;;;;15.44;62.00;100564.96;112134;1200;94899;-71
2021/09/04 02:21:09;;;;;;;0.40;0.20;;;;;;;15.44;61.80;100566.04;112192;1207;111333;-72
2021/09/04 02:23:35;;;;;;;0.40;0.20;;;;;;;15.42;61.91;100567.55;112023;1202;137713;-73
2021/09/04 02:26:02;;;;;;;0.40;0.20;;;;;;;15.34;61.95;100572.89;112137;1201;94857;-73
2021/09/04 02:28:29;;;;;;;0.40;0.20;;;;;;;15.31;61.99;100575.55;111935;1206;138123;-72
2021/09/04 02:30:55;;;;;;;0.40;0.20;;;;;;;15.33;61.82;100575.07;112208;1200;94918;-70
2021/09/04 02:33:22;;;;;;;0.40;0.20;;;;;;;15.34;61.59;100577.91;112162;1199;109396;-73
2021/09/04 02:35:48;;;;;;;0.40;0.20;;;;;;;15.31;61.53;100579.11;112127;1202;137678;-72
2021/09/04 02:38:15;;;;;;;0.40;0.20;;;;;;;15.29;61.53;100581.71;112145;1206;100575;-73
2021/09/04 02:40:42;;;;;;;0.40;0.20;;;;;;;15.25;61.44;100586.16;112058;1202;138535;-72
2021/09/04 02:43:08;;;;;;;0.40;0.20;;;;;;;15.23;61.44;100587.88;112197;1202;95463;-73
2021/09/04 02:45:35;;;;;;;0.40;0.20;;;;;;;15.20;61.37;100589.41;112219;1208;110303;-73
2021/09/04 02:48:01;;;;;;;0.40;0.20;;;;;;;15.12;61.43;100589.77;111991;1203;138890;-73
2021/09/04 02:50:28;;;;;;;0.40;0.20;;;;;;;15.09;61.41;100590.95;112175;1199;95363;-73
2021/09/04 02:52:54;;;;;;;0.40;0.20;;;;;;;15.07;61.24;100588.35;112034;1207;138886;-71
2021/09/04 02:55:21;;;;;;;0.40;0.20;;;;;;;15.03;61.26;100590.83;112239;1208;94880;-73
2021/09/04 02:57:48;;;;;;;0.40;0.20;;;;;;;14.99;61.17;100595.84;112104;1208;108330;-74
2021/09/04 03:00:15;;;;;;;0.40;0.20;;;;;;;14.93;61.42;100596.79;112058;1199;138005;-74
2021/09/04 03:02:45;;;;;;;0.40;0.20;;;;;;;14.93;61.47;100597.16;112031;1202;94844;-74
2021/09/04 03:05:12;;;;;;;0.40;0.20;;;;;;;14.84;61.56;100601.98;112231;1199;138152;-74
2021/09/04 03:07:39;;;;;;;0.40;0.20;;;;;;;14.76;61.71;100602.84;112154;1199;95172;-74
2021/09/04 03:10:06;;;;;;;0.40;0.20;;;;;;;14.64;61.87;100602.77;112095;1199;137999;-74
2021/09/04 03:12:33;;;;;;;0.40;0.20;;;;;;;14.61;62.04;100605.38;112129;1199;94917;-74
2021/09/04 03:14:59;;;;;;;0.40;0.20;;;;;;;14.60;62.05;100602.54;112223;1199;94852;-71
2021/09/04 03:17:26;;;;;;;0.40;0.20;;;;;;;14.55;61.98;100602.04;112042;1206;138819;-71
2021/09/04 03:19:53;;;;;;;0.40;0.20;;;;;;;14.48;62.18;100602.29;112315;1199;95063;-73
2021/09/04 03:22:20;;;;;;;0.40;0.20;;;;;;;14.41;62.38;100605.45;112082;1200;138710;-71
2021/09/04 03:24:46;;;;;;;0.40;0.20;;;;;;;14.45;62.36;100605.99;112294;1206;95320;-71
2021/09/04 03:27:13;;;;;;;0.40;0.20;;;;;;;14.43;62.31;100607.33;112189;1199;94843;-73
2021/09/04 03:29:40;;;;;;;0.40;0.20;;;;;;;14.36;62.25;100607.05;112135;1199;137544;-72
2021/09/04 03:32:06;;;;;;;0.40;0.20;;;;;;;14.31;62.28;100607.77;112252;1201;94920;-71
2021/09/04 03:34:33;;;;;;;0.40;0.20;;;;;;;14.32;62.32;100609.35;112128;1206;137622;-74
2021/09/04 03:36:59;;;;;;;0.40;0.20;;;;;;;14.33;62.34;100611.11;112211;1200;95061;-72
2021/09/04 03:39:26;;;;;;;0.40;0.20;;;;;;;14.22;62.36;100612.24;112255;1199;95366;-72
2021/09/04 03:41:52;;;;;;;0.40;0.20;;;;;;;14.13;62.40;100614.91;112135;1206;137880;-72
2021/09/04 03:44:19;;;;;;;0.40;0.20;;;;;;;14.14;62.49;100614.70;112280;1200;94840;-73
2021/09/04 03:46:46;;;;;;;0.40;0.20;;;;;;;14.16;62.34;100618.91;112121;1199;139006;-73
2021/09/04 03:49:12;;;;;;;0.40;0.20;;;;;;;14.07;62.51;100619.05;112286;1199;94829;-73
2021/09/04 03:51:39;;;;;;;0.40;0.30;;;;;;;14.02;62.57;100623.86;112235;1206;95070;-71
2021/09/04 03:54:06;;;;;;;0.40;0.30;;;;;;;13.99;62.46;100623.45;112099;1200;137833;-76
2021/09/04 03:56:32;;;;;;;0.40;0.20;;;;;;;13.95;62.66;100627.02;112303;1206;94855;-73
2021/09/04 03:58:59;;;;;;;0.40;0.20;;;;;;;13.91;62.52;100629.45;112158;1200;137434;-73
2021/09/04 04:01:26;;;;;;;0.40;0.20;;;;;;;13.83;62.86;100630.83;112237;1200;94943;-73
2021/09/04 04:03:53;;;;;;;0.40;0.20;;;;;;;13.73;62.91;100639.20;112223;1202;94972;-73
2021/09/04 04:06:20;;;;;;;0.40;0.20;;;;;;;13.71;63.04;100642.31;112124;1200;138826;-72
2021/09/04 04:08:46;;;;;;;0.40;0.20;;;;;;;13.74;63.05;100645.95;112245;1200;95528;-72
2021/09/04 04:11:13;;;;;;;0.40;0.20;;;;;;;13.65;63.10;100649.30;112206;1206;137608;-72
2021/09/04 04:13:40;;;;;;;0.40;0.20;;;;;;;13.66;63.19;100651.22;112220;1206;94851;-72
2021/09/04 04:16:07;;;;;;;0.40;0.20;;;;;;;13.72;62.99;100654.95;112112;1203;138365;-71
2021/09/04 04:18:34;;;;;;;0.40;0.20;;;;;;;13.68;63.20;100653.11;112231;1206;95391;-71
2021/09/04 04:21:02;;;;;;;0.40;0.20;;;;;;;13.65;63.21;100656.61;112205;1200;94804;-71
2021/09/04 04:23:28;;;;;;;0.40;0.20;;;;;;;13.59;63.31;100658.42;112116;1196;137822;-72
2021/09/04 04:25:55;;;;;;;0.40;0.20;;;;;;;13.60;63.44;100662.70;112195;1199;95160;-72
2021/09/04 04:28:22;;;;;;;0.40;0.20;;;;;;;13.63;63.39;100665.43;112093;1199;138011;-72
2021/09/04 04:30:48;;;;;;;0.40;0.20;;;;;;;13.66;63.25;100665.31;112168;1200;95009;-71
2021/09/04 04:33:15;;;;;;;0.40;0.30;;;;;;;13.65;63.20;100671.27;112118;1202;94929;-74
2021/09/04 04:35:42;;;;;;;0.40;0.30;;;;;;;13.70;63.20;100675.53;112053;1206;138490;-73
2021/09/04 04:38:08;;;;;;;0.40;0.20;;;;;;;13.75;63.26;100677.16;112204;1201;94812;-72
2021/09/04 04:40:36;;;;;;;0.40;0.20;;;;;;;13.76;63.25;100678.71;112074;1199;139762;-73
2021/09/04 04:43:03;;;;;;;0.40;0.20;;;;;;;13.73;63.50;100679.55;112351;1200;94968;-73
2021/09/04 04:45:29;;;;;;;0.40;0.20;;;;;;;13.74;63.33;100674.14;112243;1200;94844;-75
2021/09/04 04:47:56;;;;;;;0.40;0.20;;;;;;;13.80;63.47;100678.92;112058;1200;138251;-72
2021/09/04 04:50:23;;;;;;;0.40;0.20;;;;;;;13.90;63.36;100679.46;112222;1200;94860;-72
2021/09/04 04:52:49;;;;;;;0.40;0.20;;;;;;;13.92;63.27;100689.06;112019;1203;137674;-71
2021/09/04 04:55:16;;;;;;;0.40;0.20;;;;;;;13.88;63.22;100688.81;112113;1203;94854;-73
2021/09/04 04:57:42;;;;;;;0.40;0.20;;;;;;;13.89;63.53;100690.77;112143;1203;95578;-71
2021/09/04 05:00:09;;;;;;;0.40;0.20;;;;;;;13.98;63.35;100687.23;112126;1206;137914;-71
2021/09/04 05:02:38;;;;;;;0.40;0.20;;;;;;;14.08;63.35;100686.86;112235;1199;94911;-75
2021/09/04 05:05:06;;;;;;;0.40;0.20;;;;;;;14.13;63.11;100690.06;112136;1200;137502;-73
2021/09/04 05:07:34;;;;;;;0.40;0.30;;;;;;;14.18;63.14;100692.73;112262;1206;94845;-72
2021/09/04 05:10:02;;;;;;;0.40;0.20;;;;;;;14.23;63.27;100693.63;112094;1199;138745;-72
2021/09/04 05:12:29;;;;;;;0.40;0.20;;;;;;;14.29;62.85;100696.27;112158;1200;108415;-72
2021/09/04 05:14:55;;;;;;;0.40;0.20;;;;;;;14.32;62.65;100698.48;112179;1200;94813;-73
2021/09/04 05:17:22;;;;;;;0.40;0.20;;;;;;;14.30;62.78;100698.90;112155;1199;137894;-72
2021/09/04 05:19:49;;;;;;;0.40;0.20;;;;;;;14.34;62.33;100701.98;112243;1199;94858;-72
2021/09/04 05:22:15;;;;;;;0.40;0.20;;;;;;;14.37;61.95;100702.94;112124;1200;138040;-73
2021/09/04 05:24:42;;;;;;;0.40;0.20;;;;;;;14.38;62.06;100698.98;112136;1203;108375;-74
2021/09/04 05:27:09;;;;;;;0.40;0.30;;;;;;;14.13;62.38;100699.35;112125;1200;94952;-72
2021/09/04 05:29:35;;;;;;;0.40;0.20;;;;;;;14.11;62.48;100700.89;112063;1207;138351;-72
2021/09/04 05:32:03;;;;;;;0.40;0.20;;;;;;;14.19;61.61;100700.40;112218;1199;94871;-71
2021/09/04 05:34:29;;;;;;;0.40;0.20;;;;;;;14.19;61.49;100706.27;112075;1200;137673;-72
2021/09/04 05:36:56;;;;;;;0.40;0.20;;;;;;;14.17;61.67;100705.64;112218;1206;95499;-71
2021/09/04 05:39:22;;;;;;;0.40;0.20;;;;;;;14.03;61.73;100713.83;112176;1200;109368;-72
2021/09/04 05:41:49;;;;;;;0.40;0.20;;;;;;;14.03;61.51;100713.09;112122;1206;138328;-71
2021/09/04 05:44:16;;;;;;;0.40;0.20;;;;;;;14.03;61.47;100710.26;112222;1200;94842;-71
2021/09/04 05:46:42;;;;;;;0.40;0.20;;;;;;;13.96;61.59;100707.31;112000;1200;138130;-71
2021/09/04 05:49:09;;;;;;;0.40;0.20;;;;;;;13.95;61.97;100710.19;112247;1199;94874;-72
2021/09/04 05:51:35;;;;;;;0.40;0.20;;;;;;;14.05;61.86;100713.74;112119;1199;109228;-72
2021/09/04 05:54:02;;;;;;;0.40;0.20;;;;;;;14.19;61.55;100715.94;111995;1200;139031;-72
2021/09/04 05:56:29;;;;;;;0.40;0.30;;;;;;;14.19;60.88;100710.73;112142;1202;94845;-72
2021/09/04 05:58:55;;;;;;;0.40;0.30;;;;;;;14.18;60.29;100712.77;112083;1207;140434;-72
2021/09/04 06:01:22;;;;;;;0.40;0.30;;;;;;;14.12;60.56;100717.23;112128;1207;95187;-73
2021/09/04 06:03:49;;;;;;;0.40;0.20;;;;;;;14.10;60.64;100722.15;112391;1200;109857;-72
2021/09/04 06:06:16;;;;;;;0.40;0.20;;;;;;;14.16;60.44;100717.10;111992;1200;138095;-72
2021/09/04 06:08:42;;;;;;;0.40;0.20;;;;;;;14.28;60.14;100716.69;112230;1207;94864;-72
2021/09/04 06:11:09;;;;;;;0.40;0.20;;;;;;;14.30;59.73;100717.68;111977;1199;138853;-71
2021/09/04 06:13:36;;;;;;;0.40;0.30;;;;;;;14.28;59.53;100719.91;112285;1199;94898;-71
2021/09/04 06:16:02;;;;;;;0.40;0.30;;;;;;;14.28;59.62;100721.17;112097;1199;138431;-72
2021/09/04 06:18:29;;;;;;;0.40;0.20;;;;;;;14.38;59.86;100721.49;112237;1206;97831;-72
2021/09/04 06:20:56;;;;;;;0.40;0.20;;;;;;;14.36;59.88;100718.70;112211;1199;94915;-71
2021/09/04 06:23:22;;;;;;;0.40;0.20;;;;;;;14.37;59.57;100723.84;112107;1204;137530;-71
2021/09/04 06:25:49;;;;;;;0.40;0.20;;;;;;;14.39;59.12;100722.17;112177;1206;94836;-71
2021/09/04 06:28:16;;;;;;;0.40;0.20;;;;;;;14.50;59.19;100722.84;112178;1206;137973;-71
2021/09/04 06:30:42;;;;;;;0.40;0.20;;;;;;;14.63;58.69;100723.98;112225;1199;94845;-71
2021/09/04 06:33:09;;;;;;;0.40;0.20;;;;;;;14.65;59.07;100725.52;112197;1200;95034;-72
2021/09/04 06:35:36;;;;;;;0.40;0.20;;;;;;;14.57;58.66;100726.70;112027;1203;137535;-72
2021/09/04 06:38:03;;;;;;;0.40;0.20;;;;;;;14.55;57.60;100725.15;112276;1206;94841;-72
2021/09/04 06:40:30;;;;;;;0.40;0.20;;;;;;;14.43;56.20;100727.40;112098;1202;138143;-71
2021/09/04 06:42:56;;;;;;;0.40;0.20;;;;;;;14.31;56.10;100725.85;112290;1203;95332;-71
2021/09/04 06:45:23;;;;;;;0.40;0.20;;;;;;;14.40;57.43;100728.04;112153;1200;94882;-71
2021/09/04 06:47:50;;;;;;;0.40;0.20;;;;;;;14.60;57.88;100728.72;112123;1200;137854;-71
2021/09/04 06:50:16;;;;;;;0.40;0.10;;;;;;;14.83;57.39;100730.91;112215;1206;94843;-70
2021/09/04 06:52:43;;;;;;;0.40;0.20;;;;;;;15.03;56.68;100733.19;112141;1199;138256;-72
2021/09/04 06:55:10;;;;;;;0.40;0.20;;;;;;;15.23;56.26;100740.27;112240;1199;95333;-72
2021/09/04 06:57:37;;;;;;;0.40;0.20;;;;;;;15.32;54.80;100740.95;112245;1200;96098;-72
2021/09/04 07:00:04;;;;;;;0.40;0.20;;;;;;;15.37;54.37;100749.52;112022;1200;139355;-71
2021/09/04 07:02:32;;;;;;;0.40;0.20;;;;;;;15.46;54.44;100752.73;112201;1207;109274;-72
2021/09/04 07:04:59;;;;;;;0.40;0.20;;;;;;;15.53;53.68;100759.60;111976;1200;137764;-72
2021/09/04 07:07:25;;;;;;;0.40;0.20;;;;;;;15.50;53.40;100764.95;112235;1206;95246;-71
2021/09/04 07:09:52;;;;;;;0.40;0.20;;;;;;;15.43;52.21;100762.34;112221;1199;94935;-72
2021/09/04 07:12:19;;;;;;;0.40;0.20;;;;;;;15.30;53.48;100767.88;112061;1199;138101;-71
2021/09/04 07:14:46;;;;;;;0.40;0.20;;;;;;;15.27;53.22;100763.36;112158;1206;94844;-72
2021/09/04 07:17:12;;;;;;;0.40;0.20;;;;;;;15.19;52.68;100766.00;112118;1199;137658;-72
2021/09/04 07:19:39;;;;;;;0.40;0.20;;;;;;;15.20;53.37;100762.92;112117;1200;94961;-71
2021/09/04 07:22:06;;;;;;;0.40;0.20;;;;;;;15.29;52.85;100764.52;112154;1200;137662;-71
2021/09/04 07:24:32;;;;;;;0.40;0.20;;;;;;;15.38;52.78;100772.58;112188;1199;94943;-72
2021/09/04 07:26:59;;;;;;;0.40;0.20;;;;;;;15.47;53.34;100774.20;112125;1200;95451;-71
2021/09/04 07:29:26;;;;;;;0.40;0.20;;;;;;;15.46;53.21;100773.84;111956;1199;138419;-72
2021/09/04 07:31:53;;;;;;;0.40;0.20;;;;;;;15.49;53.21;100773.01;112110;1200;94880;-71
2021/09/04 07:34:19;;;;;;;0.40;0.20;;;;;;;15.44;51.95;100767.84;112045;1199;137753;-73
2021/09/04 07:36:46;;;;;;;0.40;0.20;;;;;;;15.46;51.87;100765.84;112176;1206;94911;-74
2021/09/04 07:39:13;;;;;;;0.40;0.20;;;;;;;15.51;52.11;100765.05;112125;1200;94813;-74
2021/09/04 07:41:39;;;;;;;0.40;0.20;;;;;;;15.53;51.66;100765.51;112052;1200;137721;-73
2021/09/04 07:44:06;;;;;;;0.40;0.20;;;;;;;15.54;52.00;100773.89;112138;1199;95564;-74
2021/09/04 07:46:33;;;;;;;0.40;0.20;;;;;;;15.57;52.01;100772.52;112084;1195;137734;-70
2021/09/04 07:49:00;;;;;;;0.40;0.20;;;;;;;15.65;51.96;100774.53;112168;1203;95524;-71
2021/09/04 07:51:26;;;;;;;0.40;0.20;;;;;;;15.73;51.77;100780.09;112246;1200;94931;-71
2021/09/04 07:53:53;;;;;;;0.40;0.20;;;;;;;15.79;50.28;100781.29;112145;1200;138624;-71
2021/09/04 07:56:20;;;;;;;0.40;0.20;;;;;;;15.86;49.20;100779.96;112346;1200;94875;-71
2021/09/04 07:58:46;;;;;;;0.40;0.20;;;;;;;16.03;48.96;100784.23;112084;1200;137455;-71
2021/09/04 08:01:13;;;;;;;0.40;0.20;;;;;;;16.17;49.01;100786.85;112232;1200;94942;-72
2021/09/04 08:03:41;;;;;;;0.40;0.20;;;;;;;16.38;49.28;100785.95;112267;1199;94813;-71
2021/09/04 08:06:08;;;;;;;0.40;0.20;;;;;;;16.54;48.46;100786.34;112036;1200;137557;-72
2021/09/04 08:08:36;;;;;;;0.40;0.20;;;;;;;16.70;47.97;100781.85;112113;1200;94904;-70
2021/09/04 08:11:03;;;;;;;0.40;0.20;;;;;;;16.76;47.47;100782.27;112071;1206;138858;-72
2021/09/04 08:13:30;;;;;;;0.40;0.20;;;;;;;16.83;46.97;100783.75;112207;1200;95236;-72
2021/09/04 08:15:56;;;;;;;0.40;0.10;;;;;;;16.87;47.02;100785.71;112161;1201;95318;-72
2021/09/04 08:18:23;;;;;;;0.40;0.10;;;;;;;16.98;47.75;100785.05;112086;1199;137441;-72
2021/09/04 08:20:50;;;;;;;0.40;0.10;;;;;;;17.11;47.46;100783.21;112220;1207;94937;-72
2021/09/04 08:23:17;;;;;;;0.40;0.10;;;;;;;17.24;47.10;100785.08;112031;1199;138147;-72
2021/09/04 08:25:43;;;;;;;0.40;0.10;;;;;;;17.31;46.01;100787.25;112160;1206;95310;-72
2021/09/04 08:28:10;;;;;;;0.40;0.20;;;;;;;17.35;45.36;100786.17;112095;1199;138438;-71
2021/09/04 08:30:37;;;;;;;0.40;0.10;;;;;;;17.37;45.03;100783.94;112141;1200;94864;-70
2021/09/04 08:33:04;;;;;;;0.40;0.20;;;;;;;17.32;44.92;100790.10;112337;1199;94838;-72
2021/09/04 08:35:31;;;;;;;0.40;0.20;;;;;;;17.38;46.01;100795.57;112121;1200;136664;-71
2021/09/04 08:37:59;;;;;;;0.40;0.10;;;;;;;17.46;45.11;100796.40;112167;1201;95376;-71
2021/09/04 08:40:26;;;;;;;0.40;0.10;;;;;;;17.60;44.62;100796.11;112096;1199;136728;-71
2021/09/04 08:42:53;;;;;;;0.40;0.10;;;;;;;17.71;44.65;100793.42;112162;1201;94944;-71
2021/09/04 08:45:19;;;;;;;0.40;0.10;;;;;;;17.85;44.68;100795.20;112234;1199;94815;-74
2021/09/04 08:47:47;;;;;;;0.40;0.10;;;;;;;17.93;43.53;100796.48;112074;1200;137563;-71
2021/09/04 08:50:14;;;;;;;0.40;0.10;;;;;;;18.00;43.94;100794.48;112126;1200;94978;-71
2021/09/04 08:52:41;;;;;;;0.40;0.10;;;;;;;18.10;43.26;100788.95;112020;1199;137819;-71
2021/09/04 08:55:08;;;;;;;0.40;0.10;;;;;;;18.10;42.72;100792.19;112110;1199;94823;-72
2021/09/04 08:57:35;;;;;;;0.40;0.10;;;;;;;18.01;42.52;100792.48;112180;1200;94842;-71
2021/09/04 09:00:02;;;;;;;0.40;0.10;;;;;;;17.98;41.24;100787.44;112071;1200;137537;-71
2021/09/04 09:02:29;;;;;;;0.40;0.10;;;;;;;18.00;40.56;100785.69;112179;1206;95183;-71
2021/09/04 09:05:05;;;;;;;0.40;0.10;;;;;;;18.04;40.14;100782.99;112839;1200;138134;-71
2021/09/04 09:07:39;;;;;;;0.40;0.10;;;;;;;18.12;41.48;100777.70;112960;1199;95310;-72
2021/09/04 09:10:21;;;;;;;0.40;0.10;;;;;;;18.25;40.46;100778.28;112001;1200;137951;-72
2021/09/04 09:12:49;;;;;;;0.40;0.20;;;;;;;18.39;38.01;100782.21;112752;1199;106830;-72
2021/09/04 09:15:20;;;;;;;0.40;0.20;;;;;;;19.39;36.78;100779.62;113597;1198;109509;-72
2021/09/04 09:17:57;;;;;;;0.40;0.10;;;;;;;21.21;31.65;100775.20;112687;1200;140789;-72
2021/09/04 09:20:24;;;;;;;0.40;0.10;;;;;;;22.94;31.79;100780.79;112185;1199;94835;-71
2021/09/04 09:22:51;;;;;;;0.40;0.10;;;;;;;24.78;30.39;100779.44;111967;1206;137560;-72
2021/09/04 09:25:19;;;;;;;0.40;0.10;;;;;;;26.19;28.64;100787.17;112019;1200;95375;-72
2021/09/04 09:28:06;;;;;;;0.40;0.00;;;;;;;27.64;26.31;100781.48;112173;1199;94912;-72
2021/09/04 09:30:38;;;;;;;0.40;0.00;;;;;;;28.82;24.50;100784.41;113490;1199;137472;-72
2021/09/04 09:33:05;;;;;;;0.40;0.00;;;;;;;28.72;23.12;100785.75;112090;1200;108757;-70
2021/09/04 09:35:38;;;;;;;0.40;0.00;;;;;;;28.13;22.73;100782.54;111990;1199;138344;-72
2021/09/04 09:38:06;;;;;;;0.40;0.00;;;;;;;27.75;23.02;100781.71;112051;1200;94918;-72
2021/09/04 09:40:34;;;;;;;0.40;0.00;;;;;;;27.76;24.01;100781.05;112013;1203;138103;-71
2021/09/04 09:43:02;;;;;;;0.40;0.00;;;;;;;28.56;23.84;100774.08;112945;1200;108510;-70
2021/09/04 09:45:39;;;;;;;0.40;0.00;;;;;;;29.72;22.58;100778.59;112132;1200;109586;-71
2021/09/04 09:48:06;;;;;;;0.40;0.00;;;;;;;30.88;20.73;100778.73;112070;1200;137633;-72
2021/09/04 09:50:34;;;;;;;0.40;0.00;;;;;;;31.93;19.71;100776.96;112149;1203;94812;-72
2021/09/04 09:53:01;;;;;;;0.40;0.00;;;;;;;32.84;18.77;100779.69;112052;1200;138575;-72
2021/09/04 09:55:28;;;;;;;0.40;0.00;;;;;;;33.60;18.55;100781.33;112313;1199;101502;-72
2021/09/04 09:57:59;;;;;;;0.40;0.00;;;;;;;34.45;17.77;100783.52;112165;1200;95068;-72
2021/09/04 10:00:27;;;;;;;0.40;0.00;;;;;;;34.95;16.87;100778.88;112120;1207;137724;-72
2021/09/04 10:02:59;;;;;;;0.40;0.00;;;;;;;35.38;16.54;100776.29;112627;1200;99753;-70
2021/09/04 10:05:28;;;;;;;0.40;0.00;;;;;;;35.82;16.10;100773.05;112463;1200;137510;-71
2021/09/04 10:07:57;;;;;;;0.40;0.00;;;;;;;36.20;16.05;100774.60;112056;1203;94962;-72
2021/09/04 10:10:26;;;;;;;0.40;0.00;;;;;;;36.78;15.73;100774.75;112133;1200;137708;-72
2021/09/04 10:12:54;;;;;;;0.40;0.00;;;;;;;37.44;14.94;100772.48;112098;1200;100270;-72
2021/09/04 10:15:23;;;;;;;0.40;0.00;;;;;;;37.92;14.88;100773.93;112119;1200;100858;-72
2021/09/04 10:17:53;;;;;;;0.40;0.00;;;;;;;38.18;14.21;100770.49;112591;1202;136856;-72
2021/09/04 10:20:22;;;;;;;0.40;0.00;;;;;;;38.42;13.96;100773.32;112553;1208;94846;-72
2021/09/04 10:22:48;;;;;;;0.40;0.00;;;;;;;38.62;13.88;100773.04;112038;1203;137783;-71
2021/09/04 10:25:18;;;;;;;0.40;0.00;;;;;;;38.39;13.19;100771.94;112312;1201;95387;-72
2021/09/04 10:27:49;;;;;;;0.40;0.00;;;;;;;38.02;13.68;100770.34;112227;1200;137526;-72
2021/09/04 10:30:33;;;;;;;0.40;0.00;;;;;;;38.03;13.12;100770.43;112445;1200;94837;-70
2021/09/04 10:33:12;;;;;;;0.40;0.00;;;;;;;37.78;13.22;100774.42;112118;1206;138048;-72
2021/09/04 10:35:54;;;;;;;0.40;0.00;;;;;;;37.96;13.76;100779.14;112176;1200;100882;-73
2021/09/04 10:38:35;;;;;;;0.40;0.00;;;;;;;38.54;13.85;100784.20;112552;1201;94875;-73
2021/09/04 10:41:17;;;;;;;0.40;0.00;;;;;;;38.78;13.04;100788.30;112866;1200;139304;-73
2021/09/04 10:43:46;;;;;;;0.40;0.00;;;;;;;38.78;12.45;100797.87;112351;1199;99962;-72
2021/09/04 10:46:15;;;;;;;0.40;0.00;;;;;;;38.62;12.75;100796.50;112092;1202;138036;-71
2021/09/04 10:48:44;;;;;;;0.40;0.00;;;;;;;38.16;13.06;100795.04;112551;1200;94841;-72
2021/09/04 10:51:11;;;;;;;0.40;0.00;;;;;;;36.51;14.01;100793.93;112280;1203;138239;-72
2021/09/04 10:53:48;;;;;;;0.40;0.00;;;;;;;34.66;15.36;100794.42;112299;1200;94885;-71
2021/09/04 10:56:31;;;;;;;0.40;0.00;;;;;;;32.99;16.50;100790.00;112267;1200;109881;-70
2021/09/04 10:58:58;;;;;;;0.40;0.00;;;;;;;31.78;18.06;100786.20;112230;1200;137768;-71
2021/09/04 11:01:52;;;;;;;0.40;0.00;;;;;;;30.77;19.89;100792.57;112321;1200;94836;-72
2021/09/04 11:04:19;;;;;;;0.40;0.00;;;;;;;29.50;19.78;100786.48;112337;1200;138036;-72
2021/09/04 11:06:49;;;;;;;0.40;0.00;;;;;;;28.33;20.72;100786.38;112168;1206;95291;-73
2021/09/04 11:09:17;;;;;;;0.40;0.00;;;;;;;27.65;21.56;100783.17;112230;1200;138145;-72
2021/09/04 11:11:45;;;;;;;0.40;0.00;;;;;;;26.98;22.62;100790.67;112408;1200;95355;-72
2021/09/04 11:14:23;;;;;;;0.40;0.00;;;;;;;26.26;23.33;100791.13;112315;1200;95370;-72
2021/09/04 11:16:54;;;;;;;0.40;0.00;;;;;;;25.50;24.50;100788.21;112260;1206;137584;-73